Time;durP1;ratioP1;P1;durP2;ratioP2;P2;SDS_P1;SDS_P2;PMS_P1;PMS_P2;Temp;Humidity;BMP_temperature;BMP_pressure;BME280_temperature;BME280_humidity;BME280_pressure;Samples;Min_cycle;Max_cycle;Signal;HPM_P1;HPM_P2
2023/10/03 00:00:24;;;;;;;;;;;;;;;20.75;30.82;98833.91;4999346;28;1105;-77
2023/10/03 00:02:55;;;;;;;;;;;;;;;20.67;30.80;98821.84;5000864;28;898;-76
2023/10/03 00:05:22;;;;;;;;;;;;;;;20.58;31.02;98838.53;5000281;28;1108;-77
2023/10/03 00:07:51;;;;;;;;;;;;;;;20.81;30.77;98818.88;4999895;28;1156;-77
2023/10/03 00:10:17;;;;;;;;;;;;;;;20.71;30.83;98831.13;4999934;28;935;-76
2023/10/03 00:12:43;;;;;;;;;;;;;;;20.54;31.21;98826.44;5018814;28;1980;-76
2023/10/03 00:15:09;;;;;;;;;;;;;;;20.50;31.11;98820.81;5015963;28;918;-77
2023/10/03 00:17:34;;;;;;;;;;;;;;;20.47;30.87;98820.88;5016101;28;971;-77
2023/10/03 00:20:02;;;;;;;;;;;;;;;20.87;30.28;98826.91;4999732;28;919;-76
2023/10/03 00:22:27;;;;;;;;;;;;;;;20.66;30.32;98828.75;4999712;28;1067;-77
2023/10/03 00:24:53;;;;;;;;;;;;;;;20.63;30.40;98829.59;4999148;28;1002;-76
2023/10/03 00:27:19;;;;;;;;;;;;;;;20.62;30.20;98825.13;5015756;28;964;-76
2023/10/03 00:29:44;;;;;;;;;;;;;;;20.67;30.13;98821.84;4999039;28;1226;-77
2023/10/03 00:32:10;;;;;;;;;;;;;;;20.70;30.07;98820.22;5015812;28;997;-77
2023/10/03 00:34:36;;;;;;;;;;;;;;;20.71;29.96;98831.13;4995558;28;1914;-76
2023/10/03 00:37:02;;;;;;;;;;;;;;;20.66;29.95;98825.91;4996189;28;1153;-76
2023/10/03 00:39:28;;;;;;;;;;;;;;;20.59;30.01;98828.81;4995986;28;921;-76
2023/10/03 00:41:53;;;;;;;;;;;;;;;20.62;29.71;98827.97;4996188;28;919;-76
2023/10/03 00:44:19;;;;;;;;;;;;;;;20.76;29.58;98833.50;4995988;28;1088;-77
2023/10/03 00:46:45;;;;;;;;;;;;;;;20.90;29.53;98835.38;4979638;28;1000;-77
2023/10/03 00:49:14;;;;;;;;;;;;;;;20.80;29.49;98831.44;4995339;28;1307;-76
2023/10/03 00:51:40;;;;;;;;;;;;;;;20.78;29.29;98833.88;4995782;28;1240;-76
2023/10/03 00:54:06;;;;;;;;;;;;;;;20.46;29.82;98828.50;4979770;28;1910;-76
2023/10/03 00:56:32;;;;;;;;;;;;;;;20.51;29.85;98838.56;4995625;28;938;-77
2023/10/03 00:58:57;;;;;;;;;;;;;;;20.66;29.31;98845.69;4979433;28;1300;-77
2023/10/03 01:01:27;;;;;;;;;;;;;;;20.56;29.74;98840.94;4963524;28;1003;-76
2023/10/03 01:03:55;;;;;;;;;;;;;;;20.80;29.34;98845.56;4964002;28;941;-76
2023/10/03 01:06:21;;;;;;;;;;;;;;;20.51;29.83;98838.56;4995320;28;1323;-77
2023/10/03 01:08:47;;;;;;;;;;;;;;;20.74;29.35;98847.25;4985329;28;1232;-77
2023/10/03 01:11:17;;;;;;;;;;;;;;;20.57;29.93;98839.72;5035231;28;991;-76
2023/10/03 01:13:49;;;;;;;;;;;;;;;20.58;29.91;98841.34;5018709;28;1974;-77
2023/10/03 01:16:29;;;;;;;;;;;;;;;20.57;30.09;98838.91;5002948;28;858;-76
2023/10/03 01:18:59;;;;;;;;;;;;;;;20.68;29.83;98834.78;4995377;28;942;-76
2023/10/03 01:21:25;;;;;;;;;;;;;;;20.66;29.98;98840.06;4979873;28;1146;-76
2023/10/03 01:23:51;;;;;;;;;;;;;;;20.68;29.91;98837.63;4995172;28;1000;-77
2023/10/03 01:26:18;;;;;;;;;;;;;;;20.68;29.80;98843.28;4995583;28;1321;-76
2023/10/03 01:28:43;;;;;;;;;;;;;;;20.63;29.96;98840.09;4978861;28;1264;-76
2023/10/03 01:31:09;;;;;;;;;;;;;;;20.62;29.99;98841.31;4995387;28;1212;-77
2023/10/03 01:33:35;;;;;;;;;;;;;;;20.67;29.74;98841.66;4994875;28;1973;-76
2023/10/03 01:36:01;;;;;;;;;;;;;;;20.43;30.32;98837.81;4995488;28;924;-77
2023/10/03 01:38:27;;;;;;;;;;;;;;;20.70;29.84;98838.00;4978564;28;895;-76
2023/10/03 01:40:52;;;;;;;;;;;;;;;20.66;29.98;98831.56;4995459;28;983;-77
2023/10/03 01:43:18;;;;;;;;;;;;;;;20.51;30.09;98838.56;4978711;28;1624;-77
2023/10/03 01:45:43;;;;;;;;;;;;;;;20.40;30.46;98844.28;4995213;28;972;-77
2023/10/03 01:48:12;;;;;;;;;;;;;;;20.63;30.13;98835.25;4994984;28;1008;-77
2023/10/03 01:50:37;;;;;;;;;;;;;;;20.44;30.19;98832.97;5031493;28;1496;-76
2023/10/03 01:53:04;;;;;;;;;;;;;;;20.71;29.76;98828.28;5002682;28;1969;-76
2023/10/03 01:55:29;;;;;;;;;;;;;;;20.57;29.88;98830.44;5001573;28;1190;-77
2023/10/03 01:57:56;;;;;;;;;;;;;;;20.80;29.90;98837.09;5019123;28;1052;-77
2023/10/03 02:00:25;;;;;;;;;;;;;;;20.41;30.36;98833.78;5002468;28;1087;-77
2023/10/03 02:02:56;;;;;;;;;;;;;;;20.49;30.09;98835.38;5018927;28;969;-76
2023/10/03 02:05:23;;;;;;;;;;;;;;;20.63;30.03;98826.78;4997691;28;1267;-77
2023/10/03 02:07:49;;;;;;;;;;;;;;;20.43;30.17;98831.38;4997971;28;1024;-77
2023/10/03 02:10:15;;;;;;;;;;;;;;;20.57;30.07;98833.28;4997918;28;1150;-77
2023/10/03 02:12:44;;;;;;;;;;;;;;;20.62;30.00;98833.63;4998142;28;1993;-77
2023/10/03 02:15:15;;;;;;;;;;;;;;;20.49;29.85;98829.72;5014446;28;1346;-77
2023/10/03 02:17:40;;;;;;;;;;;;;;;20.61;29.73;98832.00;4978184;28;1132;-77
2023/10/03 02:20:15;;;;;;;;;;;;;;;20.52;30.05;98835.34;4994768;28;1038;-76
2023/10/03 02:22:41;;;;;;;;;;;;;;;20.57;29.72;98831.25;4995090;28;924;-76
2023/10/03 02:25:09;;;;;;;;;;;;;;;20.47;30.14;98826.53;4997715;28;934;-77
2023/10/03 02:27:34;;;;;;;;;;;;;;;20.70;29.89;98823.06;4982394;28;1012;-77
2023/10/03 02:30:05;;;;;;;;;;;;;;;20.61;29.62;98819.91;4998301;28;1038;-76
2023/10/03 02:32:30;;;;;;;;;;;;;;;20.73;29.67;98827.88;4998738;28;1975;-77
2023/10/03 02:34:56;;;;;;;;;;;;;;;20.57;29.69;98824.78;5014653;28;1023;-76
2023/10/03 02:37:22;;;;;;;;;;;;;;;20.61;29.59;98826.38;4982145;28;1110;-77
2023/10/03 02:39:47;;;;;;;;;;;;;;;20.45;30.12;98823.25;4982080;28;1140;-76
2023/10/03 02:42:13;;;;;;;;;;;;;;;20.61;29.59;98826.38;4998514;28;1141;-77
2023/10/03 02:44:39;;;;;;;;;;;;;;;20.67;29.81;98826.72;4998131;28;1026;-76
2023/10/03 02:47:05;;;;;;;;;;;;;;;20.50;30.03;98820.00;4982436;28;1331;-77
2023/10/03 02:49:31;;;;;;;;;;;;;;;20.50;29.89;98823.63;4997893;28;1469;-76
2023/10/03 02:52:00;;;;;;;;;;;;;;;20.43;30.26;98826.50;4998847;28;1180;-77
2023/10/03 02:54:25;;;;;;;;;;;;;;;20.62;29.78;98827.97;4990718;28;1922;-75
2023/10/03 02:56:52;;;;;;;;;;;;;;;20.54;29.81;98829.28;5006003;28;1280;-77
2023/10/03 02:59:17;;;;;;;;;;;;;;;20.54;29.95;98829.28;4989471;28;1211;-77
2023/10/03 03:01:44;;;;;;;;;;;;;;;20.58;29.48;98826.41;4989362;28;1303;-77
2023/10/03 03:04:12;;;;;;;;;;;;;;;20.52;29.74;98817.56;5039673;28;964;-76
2023/10/03 03:06:40;;;;;;;;;;;;;;;20.53;29.67;98824.84;5002247;28;1481;-77
2023/10/03 03:09:07;;;;;;;;;;;;;;;20.55;29.88;98823.19;5002571;28;1130;-77
2023/10/03 03:11:34;;;;;;;;;;;;;;;20.75;29.49;98826.22;5002384;28;1206;-77
2023/10/03 03:13:59;;;;;;;;;;;;;;;20.58;29.77;98830.03;4981300;28;1922;-76
2023/10/03 03:16:25;;;;;;;;;;;;;;;20.65;29.63;98838.44;4949390;28;1185;-77
2023/10/03 03:18:52;;;;;;;;;;;;;;;20.45;29.87;98831.72;4965239;28;1262;-77
2023/10/03 03:21:20;;;;;;;;;;;;;;;20.55;29.86;98833.69;4965360;28;1096;-77
2023/10/03 03:23:56;;;;;;;;;;;;;;;20.59;29.70;98833.69;4980979;28;1089;-77
2023/10/03 03:26:24;;;;;;;;;;;;;;;20.40;29.80;98835.00;4981484;28;934;-76
2023/10/03 03:28:50;;;;;;;;;;;;;;;20.39;29.82;98827.75;4981505;28;959;-77
2023/10/03 03:31:22;;;;;;;;;;;;;;;20.23;30.26;98840.41;4981409;28;931;-77
2023/10/03 03:33:51;;;;;;;;;;;;;;;20.50;29.84;98834.94;4981653;28;1918;-77
2023/10/03 03:36:20;;;;;;;;;;;;;;;20.70;29.36;98835.16;4980250;28;994;-76
2023/10/03 03:38:46;;;;;;;;;;;;;;;20.58;29.78;98830.03;4977492;28;952;-77
2023/10/03 03:41:12;;;;;;;;;;;;;;;20.58;29.78;98835.69;4961610;28;1220;-76
2023/10/03 03:43:38;;;;;;;;;;;;;;;20.54;29.61;98829.28;4942075;29;1000;-77
2023/10/03 03:46:04;;;;;;;;;;;;;;;20.61;29.44;98837.66;4976495;28;1040;-77
2023/10/03 03:48:33;;;;;;;;;;;;;;;20.36;30.21;98837.06;4961341;28;1204;-76
2023/10/03 03:50:59;;;;;;;;;;;;;;;20.65;29.59;98841.28;4962716;28;1237;-76
2023/10/03 03:53:25;;;;;;;;;;;;;;;20.61;29.52;98834.03;4977177;28;1933;-76
2023/10/03 03:55:50;;;;;;;;;;;;;;;20.59;29.50;98834.47;4961449;28;1218;-77
2023/10/03 03:58:18;;;;;;;;;;;;;;;20.60;29.65;98833.25;4961177;28;1262;-76
2023/10/03 04:00:51;;;;;;;;;;;;;;;20.97;29.09;98838.13;4961937;28;898;-77
2023/10/03 04:03:17;;;;;;;;;;;;;;;20.59;29.43;98839.31;4960788;28;1270;-77
2023/10/03 04:05:42;;;;;;;;;;;;;;;20.54;29.56;98837.75;4945229;28;1406;-77
2023/10/03 04:08:08;;;;;;;;;;;;;;;20.45;29.89;98834.56;4961331;28;1124;-76
2023/10/03 04:10:36;;;;;;;;;;;;;;;20.89;29.14;98836.59;4971690;28;1420;-77
2023/10/03 04:13:04;;;;;;;;;;;;;;;20.78;29.47;98836.72;4961015;28;1915;-76
2023/10/03 04:15:31;;;;;;;;;;;;;;;20.65;29.56;98834.81;4977113;28;1070;-77
2023/10/03 04:17:56;;;;;;;;;;;;;;;20.44;29.93;98850.72;4961276;28;1053;-77
2023/10/03 04:22:51;;;;;;;;;;;;;;;20.37;30.09;98847.16;4980951;28;988;-76
2023/10/03 04:25:19;;;;;;;;;;;;;;;20.25;30.15;98849.25;4980347;28;991;-77
2023/10/03 04:27:46;;;;;;;;;;;;;;;20.80;29.48;98845.56;4964649;28;1156;-76
2023/10/03 04:30:13;;;;;;;;;;;;;;;20.52;29.82;98852.31;4980319;28;962;-76
2023/10/03 04:32:42;;;;;;;;;;;;;;;20.43;30.00;98848.31;4980742;28;1899;-79
2023/10/03 04:35:11;;;;;;;;;;;;;;;20.34;30.33;98845.16;4980171;28;1115;-77
2023/10/03 04:37:39;;;;;;;;;;;;;;;20.35;30.31;98855.25;4996263;28;1504;-76
2023/10/03 04:40:06;;;;;;;;;;;;;;;20.46;30.05;98855.94;4937705;29;1611;-76
2023/10/03 04:42:32;;;;;;;;;;;;;;;20.57;29.66;98848.22;4938735;29;916;-76
2023/10/03 04:44:57;;;;;;;;;;;;;;;20.44;30.26;98858.41;4972789;28;939;-76
2023/10/03 04:47:24;;;;;;;;;;;;;;;20.37;30.17;98855.66;4976631;28;1121;-77
2023/10/03 04:49:50;;;;;;;;;;;;;;;20.40;30.10;98858.41;4944324;28;1109;-76
2023/10/03 04:52:15;;;;;;;;;;;;;;;20.57;29.72;98862.34;4976749;28;1002;-77
2023/10/03 04:54:41;;;;;;;;;;;;;;;20.50;29.76;98865.25;4960206;28;1992;-77
2023/10/03 04:57:06;;;;;;;;;;;;;;;20.34;29.94;98862.13;4960418;28;941;-76
2023/10/03 04:59:32;;;;;;;;;;;;;;;20.32;30.03;98876.69;4944309;28;1074;-76
2023/10/03 05:01:58;;;;;;;;;;;;;;;20.28;29.89;98876.69;4944017;28;926;-76
2023/10/03 05:04:23;;;;;;;;;;;;;;;20.43;30.00;98870.94;4959614;28;1535;-77
2023/10/03 05:06:49;;;;;;;;;;;;;;;20.25;30.17;98877.50;4937313;29;1536;-77
2023/10/03 05:09:17;;;;;;;;;;;;;;;20.45;29.84;98882.63;4945317;29;1413;-77
2023/10/03 05:11:43;;;;;;;;;;;;;;;20.54;29.94;98883.00;4975156;28;2125;-76
2023/10/03 05:14:09;;;;;;;;;;;;;;;20.64;29.52;98887.75;5008298;28;1973;-76
2023/10/03 05:16:35;;;;;;;;;;;;;;;20.44;29.94;98889.50;4984899;28;1649;-76
2023/10/03 05:19:01;;;;;;;;;;;;;;;20.65;29.43;98895.00;4984425;28;1582;-77
2023/10/03 05:21:26;;;;;;;;;;;;;;;20.55;29.63;98895.91;5003656;28;1486;-77
2023/10/03 05:23:52;;;;;;;;;;;;;;;20.40;30.05;98888.72;4998008;28;1499;-77
2023/10/03 05:26:21;;;;;;;;;;;;;;;20.66;29.72;98902.25;4989411;28;1590;-76
2023/10/03 05:28:46;;;;;;;;;;;;;;;20.65;29.43;98906.31;4978636;28;2361;-77
2023/10/03 05:31:15;;;;;;;;;;;;;;;20.56;29.79;98903.16;4978778;28;1075;-77
2023/10/03 05:33:42;;;;;;;;;;;;;;;20.58;29.85;98906.38;4979914;28;1907;-74
2023/10/03 05:36:13;;;;;;;;;;;;;;;20.95;30.17;98905.66;4975106;28;987;-78
2023/10/03 05:38:40;;;;;;;;;;;;;;;21.41;28.93;98897.94;4993487;28;956;-79
2023/10/03 05:41:06;;;;;;;;;;;;;;;21.44;28.80;98906.34;5002386;28;940;-79
2023/10/03 05:43:33;;;;;;;;;;;;;;;21.51;28.96;98911.16;5017342;28;907;-79
2023/10/03 05:45:58;;;;;;;;;;;;;;;21.31;29.21;98908.13;5019712;28;927;-80
2023/10/03 05:48:25;;;;;;;;;;;;;;;21.45;29.17;98910.81;5001195;28;1755;-76
2023/10/03 08:01:16;;;;;;;;;;;;;;;19.09;38.53;98958.66;5092606;27;1494;-76
2023/10/03 08:03:45;;;;;;;;;;;;;;;19.94;35.94;98966.91;5091647;28;1458;-75
2023/10/03 08:06:14;;;;;;;;;;;;;;;20.91;33.58;98963.47;5092970;28;983;-74
2023/10/03 08:08:40;;;;;;;;;;;;;;;21.51;32.03;98962.94;5120994;28;1396;-74
2023/10/03 08:11:06;;;;;;;;;;;;;;;21.50;32.06;98960.50;5092597;28;1546;-75
2023/10/03 08:13:38;;;;;;;;;;;;;;;21.45;31.78;98963.78;5091532;28;1552;-69
2023/10/03 08:16:04;;;;;;;;;;;;;;;21.38;31.78;98958.22;5091140;28;1083;-70
2023/10/03 08:18:35;;;;;;;;;;;;;;;21.67;31.39;98953.84;5092598;28;935;-75
2023/10/03 08:21:03;;;;;;;;;;;;;;;22.02;30.43;98957.44;5092504;28;1982;-73
2023/10/03 08:23:32;;;;;;;;;;;;;;;22.15;30.35;98955.69;5091935;28;950;-69
2023/10/03 08:26:01;;;;;;;;;;;;;;;22.10;30.18;98953.28;5092599;28;1033;-70
2023/10/03 08:28:28;;;;;;;;;;;;;;;22.26;29.96;98956.34;5091755;28;2072;-72
2023/10/03 08:30:54;;;;;;;;;;;;;;;22.05;30.67;98946.06;5091896;28;1510;-74
2023/10/03 08:33:20;;;;;;;;;;;;;;;21.77;30.79;98941.59;5103745;28;1799;-71
2023/10/03 08:35:46;;;;;;;;;;;;;;;21.69;30.83;98951.38;5088355;28;1023;-69
2023/10/03 08:38:13;;;;;;;;;;;;;;;21.82;30.21;98955.28;5089724;28;1696;-69
2023/10/03 08:40:42;;;;;;;;;;;;;;;21.56;30.90;98941.84;5091241;28;1906;-73
2023/10/03 08:43:08;;;;;;;;;;;;;;;22.22;29.78;98946.28;5089649;28;1176;-74
2023/10/03 08:45:37;;;;;;;;;;;;;;;22.02;30.16;98937.59;5086144;28;1049;-74
2023/10/03 08:48:06;;;;;;;;;;;;;;;21.89;30.68;98937.38;5051655;28;1614;-73
2023/10/03 08:50:35;;;;;;;;;;;;;;;21.95;30.74;98946.22;5031414;28;1852;-69
2023/10/03 08:53:13;;;;;;;;;;;;;;;22.30;30.73;98951.41;5031776;28;1446;-74
2023/10/03 08:55:48;;;;;;;;;;;;;;;22.56;30.31;98943.34;5032884;28;1564;-74
2023/10/03 08:58:14;;;;;;;;;;;;;;;22.48;30.40;98944.66;5032465;28;1929;-73
2023/10/03 09:00:46;;;;;;;;;;;;;;;22.54;30.32;98952.28;5029478;28;2018;-81
2023/10/03 09:03:12;;;;;;;;;;;;;;;22.77;29.77;98943.00;5043877;28;1118;-73
2023/10/03 09:05:41;;;;;;;;;;;;;;;22.63;30.26;98940.38;5029396;28;1005;-77
2023/10/03 09:08:10;;;;;;;;;;;;;;;22.85;30.08;98950.16;5045411;28;1548;-76
2023/10/03 09:10:50;;;;;;;;;;;;;;;22.36;30.65;98944.03;5043860;28;985;-77
2023/10/03 09:13:23;;;;;;;;;;;;;;;22.62;30.10;98944.47;5033191;28;1259;-78
2023/10/03 09:15:49;;;;;;;;;;;;;;;22.69;30.20;98943.53;5050690;28;1295;-71
2023/10/03 09:18:21;;;;;;;;;;;;;;;22.32;30.75;98948.94;5042482;28;1143;-77
2023/10/03 09:20:49;;;;;;;;;;;;;;;22.68;30.15;98942.75;5042877;28;1220;-77
2023/10/03 09:23:17;;;;;;;;;;;;;;;22.93;29.69;98942.34;5050541;28;2008;-78
2023/10/03 09:25:48;;;;;;;;;;;;;;;23.17;29.70;98940.31;5076636;28;1756;-81
2023/10/03 09:28:14;;;;;;;;;;;;;;;23.21;29.60;98941.06;5075137;28;1622;-75
2023/10/03 09:30:39;;;;;;;;;;;;;;;23.12;29.37;98924.59;5058740;28;1910;-74
2023/10/03 09:33:16;;;;;;;;;;;;;;;22.76;30.04;98932.88;5075533;28;1145;-71
2023/10/03 09:35:48;;;;;;;;;;;;;;;23.05;29.19;98926.72;5059671;28;1035;-72
2023/10/03 09:38:19;;;;;;;;;;;;;;;22.87;29.43;98927.81;5056094;28;1388;-73
2023/10/03 09:40:47;;;;;;;;;;;;;;;22.75;29.57;98931.28;5057861;28;999;-73
2023/10/03 09:43:16;;;;;;;;;;;;;;;22.88;28.98;98929.47;5062295;28;1266;-73
2023/10/03 09:45:41;;;;;;;;;;;;;;;22.62;29.61;98925.41;5107103;28;1517;-73
2023/10/03 09:48:08;;;;;;;;;;;;;;;22.51;29.48;98929.66;5097157;28;1537;-73
2023/10/03 09:50:35;;;;;;;;;;;;;;;22.60;29.51;98929.91;5097643;28;1909;-74
2023/10/03 09:53:01;;;;;;;;;;;;;;;22.30;29.98;98923.06;5056939;28;1497;-73
2023/10/03 09:55:44;;;;;;;;;;;;;;;22.57;29.10;98936.44;5105541;28;1547;-73
2023/10/03 09:58:09;;;;;;;;;;;;;;;22.55;29.38;98934.03;5103452;28;1521;-73
2023/10/03 10:03:37;;;;;;;;;;;;;;;22.42;29.42;98913.16;5026232;28;1561;-76
2023/10/03 10:06:12;;;;;;;;;;;;;;;22.57;29.22;98919.41;5032422;28;1747;-74
2023/10/03 10:08:41;;;;;;;;;;;;;;;22.51;28.90;98906.97;5047779;28;1630;-74
2023/10/03 10:11:10;;;;;;;;;;;;;;;22.71;28.58;98907.03;5053861;28;1985;-74
2023/10/03 10:13:37;;;;;;;;;;;;;;;22.69;28.75;98898.97;5054362;28;1338;-79
2023/10/03 10:16:16;;;;;;;;;;;;;;;22.34;29.58;98900.34;5032908;28;1777;-79
2023/10/03 10:18:44;;;;;;;;;;;;;;;21.94;30.04;98904.94;5035897;28;1562;-78
2023/10/03 10:21:32;;;;;;;;;;;;;;;22.00;30.01;98906.06;5053939;28;2187;-79
2023/10/03 10:24:16;;;;;;;;;;;;;;;21.72;30.28;98899.56;5037475;28;1087;-78
2023/10/03 10:26:48;;;;;;;;;;;;;;;21.68;30.46;98903.66;4999295;28;1110;-78
2023/10/03 10:29:19;;;;;;;;;;;;;;;21.88;29.92;98892.47;4991914;28;1910;-77
2023/10/03 10:31:44;;;;;;;;;;;;;;;21.90;29.78;98895.69;4982156;28;1063;-77
2023/10/03 10:34:22;;;;;;;;;;;;;;;21.89;29.53;98889.22;5015301;28;962;-78
2023/10/03 10:37:01;;;;;;;;;;;;;;;21.76;29.92;98900.31;5015510;28;1034;-77
2023/10/03 10:39:47;;;;;;;;;;;;;;;21.81;29.81;98899.84;5027905;28;1508;-77
2023/10/03 10:42:14;;;;;;;;;;;;;;;21.95;29.48;98898.03;5034874;28;1796;-77
2023/10/03 10:44:58;;;;;;;;;;;;;;;21.81;29.81;98891.34;5034860;28;1259;-77
2023/10/03 10:47:24;;;;;;;;;;;;;;;21.68;29.85;98881.81;5018333;28;956;-77
2023/10/03 10:49:56;;;;;;;;;;;;;;;21.65;29.90;98882.63;5050861;28;1894;-77
2023/10/03 10:52:22;;;;;;;;;;;;;;;21.57;30.04;98881.94;5034381;28;1028;-77
2023/10/03 10:54:47;;;;;;;;;;;;;;;21.55;29.84;98873.06;5034944;28;1120;-78
2023/10/03 10:57:18;;;;;;;;;;;;;;;21.48;30.11;98872.34;5023918;28;1033;-77
2023/10/03 10:59:43;;;;;;;;;;;;;;;21.34;30.23;98881.81;5010313;28;1116;-77
2023/10/03 11:02:20;;;;;;;;;;;;;;;21.45;29.96;98878.84;5007561;28;1602;-78
2023/10/03 11:04:53;;;;;;;;;;;;;;;21.40;29.88;98876.47;4999999;28;1571;-77
2023/10/03 11:07:21;;;;;;;;;;;;;;;21.48;29.77;98873.16;4994582;28;1640;-78
2023/10/03 11:09:48;;;;;;;;;;;;;;;21.73;29.54;98864.34;4995229;28;1911;-78
2023/10/03 11:12:21;;;;;;;;;;;;;;;21.50;29.62;98864.22;5009541;28;2030;-78
2023/10/03 11:14:47;;;;;;;;;;;;;;;21.70;29.35;98868.00;4998072;28;1500;-78
2023/10/03 11:17:12;;;;;;;;;;;;;;;21.39;29.91;98855.84;5031739;28;1662;-78
2023/10/03 11:19:38;;;;;;;;;;;;;;;21.39;29.67;98857.88;5019726;28;1501;-79
2023/10/03 11:22:04;;;;;;;;;;;;;;;21.16;30.06;98856.50;5002022;28;1434;-79
2023/10/03 11:24:29;;;;;;;;;;;;;;;21.32;29.94;98859.59;5000865;28;1786;-79
2023/10/03 11:26:57;;;;;;;;;;;;;;;21.59;29.47;98862.47;5028664;28;1632;-78
2023/10/03 11:29:38;;;;;;;;;;;;;;;21.28;30.11;98852.31;4996370;28;1910;-79
2023/10/03 11:32:04;;;;;;;;;;;;;;;21.15;30.07;98849.25;5062025;28;1598;-79
2023/10/03 11:34:31;;;;;;;;;;;;;;;21.27;29.66;98857.19;5047976;28;1678;-78
2023/10/03 11:36:57;;;;;;;;;;;;;;;21.46;29.38;98849.31;5072974;28;1354;-79
2023/10/03 11:39:23;;;;;;;;;;;;;;;21.44;29.58;98846.09;5073627;28;1539;-79
2023/10/03 11:41:49;;;;;;;;;;;;;;;21.26;29.88;98849.13;5075450;28;1403;-79
2023/10/03 11:44:18;;;;;;;;;;;;;;;21.45;29.52;98850.53;5076235;28;1524;-77
2023/10/03 11:46:44;;;;;;;;;;;;;;;21.58;29.14;98851.59;5075335;28;1140;-79
2023/10/03 11:49:09;;;;;;;;;;;;;;;21.39;29.73;98843.75;5076104;28;1967;-79
2023/10/03 11:51:38;;;;;;;;;;;;;;;21.51;29.43;98843.19;5076045;28;995;-79
2023/10/03 11:54:09;;;;;;;;;;;;;;;21.47;29.46;98842.44;5076011;28;917;-78
2023/10/03 11:56:41;;;;;;;;;;;;;;;21.43;29.61;98836.81;5075380;28;863;-78
2023/10/03 11:59:07;;;;;;;;;;;;;;;21.38;29.34;98827.97;5057777;28;1044;-78
2023/10/03 12:01:35;;;;;;;;;;;;;;;21.57;29.08;98836.63;5074942;28;884;-79
2023/10/03 12:04:01;;;;;;;;;;;;;;;21.49;29.26;98831.47;5075904;28;1004;-79
2023/10/03 12:06:26;;;;;;;;;;;;;;;21.38;29.51;98825.16;5075961;28;1155;-79
2023/10/03 12:08:52;;;;;;;;;;;;;;;21.06;29.75;98829.13;5074772;28;951;-78
2023/10/03 12:11:20;;;;;;;;;;;;;;;21.27;29.43;98826.06;5074517;28;1902;-78
2023/10/03 12:13:45;;;;;;;;;;;;;;;21.41;29.18;98822.28;5074557;28;1015;-79
2023/10/03 12:16:11;;;;;;;;;;;;;;;21.45;29.07;98830.72;5076057;28;1208;-79
2023/10/03 12:18:37;;;;;;;;;;;;;;;21.20;29.73;98817.66;5074659;28;1051;-78
2023/10/03 12:21:03;;;;;;;;;;;;;;;21.26;29.57;98821.63;5074951;28;870;-78
2023/10/03 12:23:28;;;;;;;;;;;;;;;21.35;29.54;98812.66;5075376;28;991;-78
2023/10/03 12:25:54;;;;;;;;;;;;;;;21.35;29.52;98811.84;5075908;28;851;-79
2023/10/03 12:28:21;;;;;;;;;;;;;;;21.49;28.96;98811.66;5075467;28;988;-78
2023/10/03 12:30:50;;;;;;;;;;;;;;;21.37;29.21;98815.06;5075062;28;1914;-79
2023/10/03 12:33:16;;;;;;;;;;;;;;;21.38;29.42;98808.16;5074256;28;1067;-78
2023/10/03 12:35:41;;;;;;;;;;;;;;;21.07;29.59;98808.09;5073400;28;1048;-79
2023/10/03 12:38:10;;;;;;;;;;;;;;;21.09;29.71;98822.66;5073144;28;952;-78
2023/10/03 12:40:35;;;;;;;;;;;;;;;21.64;28.66;98813.06;5056447;28;953;-79
2023/10/03 12:43:01;;;;;;;;;;;;;;;21.67;28.82;98815.06;5073465;28;994;-78
2023/10/03 12:45:27;;;;;;;;;;;;;;;21.51;28.68;98809.22;5073023;28;1126;-79
2023/10/03 12:47:53;;;;;;;;;;;;;;;21.43;29.00;98802.03;5076711;28;892;-79
2023/10/03 12:50:25;;;;;;;;;;;;;;;21.39;29.30;98809.75;5060199;28;1902;-78
2023/10/03 12:52:51;;;;;;;;;;;;;;;21.28;29.00;98802.19;5061167;28;1434;-78
2023/10/03 12:55:17;;;;;;;;;;;;;;;21.25;29.55;98797.38;5060027;28;1020;-79
2023/10/03 12:57:45;;;;;;;;;;;;;;;21.37;29.43;98798.88;5060456;28;1155;-78
2023/10/03 13:00:12;;;;;;;;;;;;;;;21.44;29.21;98795.13;5060460;28;1122;-78
2023/10/03 13:02:39;;;;;;;;;;;;;;;21.40;29.11;98798.03;5060452;28;1004;-78
2023/10/03 13:05:05;;;;;;;;;;;;;;;21.18;29.53;98788.97;5060686;28;962;-79
2023/10/03 13:07:35;;;;;;;;;;;;;;;21.27;29.39;98789.25;5074305;28;848;-79
2023/10/03 13:10:07;;;;;;;;;;;;;;;21.34;29.01;98791.22;5077811;28;1981;-78
2023/10/03 13:12:33;;;;;;;;;;;;;;;21.38;29.14;98785.50;5078178;28;1202;-79
2023/10/03 13:14:59;;;;;;;;;;;;;;;21.47;28.96;98794.31;5077462;28;1140;-79
2023/10/03 13:17:26;;;;;;;;;;;;;;;21.43;29.06;98790.72;5061141;28;1142;-79
2023/10/03 13:19:52;;;;;;;;;;;;;;;21.30;29.29;98794.13;5076226;28;1023;-79
2023/10/03 13:22:17;;;;;;;;;;;;;;;21.01;29.95;98799.28;5059734;28;1052;-78
2023/10/03 13:24:43;;;;;;;;;;;;;;;21.22;29.55;98791.75;5042995;28;1082;-78
2023/10/03 13:27:08;;;;;;;;;;;;;;;21.08;29.69;98798.38;5043196;28;1010;-78
2023/10/03 13:29:34;;;;;;;;;;;;;;;20.80;30.12;98789.00;5059540;28;1921;-78
2023/10/03 13:32:00;;;;;;;;;;;;;;;21.00;29.86;98788.38;5043160;28;1221;-78
2023/10/03 13:34:25;;;;;;;;;;;;;;;21.28;29.39;98790.84;5042552;28;1668;-78
2023/10/03 13:36:53;;;;;;;;;;;;;;;21.26;29.27;98787.66;5036225;28;1248;-78
2023/10/03 13:39:19;;;;;;;;;;;;;;;21.17;29.57;98784.53;5003226;28;1206;-79
2023/10/03 13:41:45;;;;;;;;;;;;;;;21.27;29.12;98789.25;5036215;28;938;-78
2023/10/03 13:44:11;;;;;;;;;;;;;;;21.13;29.51;98789.44;5035455;28;1134;-78
2023/10/03 13:46:37;;;;;;;;;;;;;;;21.26;29.30;98787.66;5003193;28;1153;-78
2023/10/03 13:49:06;;;;;;;;;;;;;;;21.35;29.14;98783.53;5035666;28;1906;-78
2023/10/03 13:51:32;;;;;;;;;;;;;;;21.27;29.48;98786.44;5052205;28;951;-78
2023/10/03 13:53:59;;;;;;;;;;;;;;;21.13;29.66;98789.44;5039520;28;877;-78
2023/10/03 13:56:25;;;;;;;;;;;;;;;21.05;29.47;98780.25;5039411;28;1061;-78
2023/10/03 13:58:52;;;;;;;;;;;;;;;21.03;29.81;98773.38;5022639;28;1221;-78
2023/10/03 14:01:17;;;;;;;;;;;;;;;21.22;29.47;98774.78;5039750;28;955;-78
2023/10/03 14:03:43;;;;;;;;;;;;;;;21.02;30.09;98768.94;5039231;28;1151;-78
2023/10/03 14:06:15;;;;;;;;;;;;;;;20.97;29.71;98778.72;5039146;28;1638;-78
2023/10/03 14:08:41;;;;;;;;;;;;;;;21.02;29.62;98766.91;5080367;28;1493;-78
2023/10/03 14:11:06;;;;;;;;;;;;;;;21.23;29.48;98771.50;5077070;28;1990;-79
2023/10/03 14:13:33;;;;;;;;;;;;;;;21.17;29.83;98769.59;5084686;28;1446;-79
2023/10/03 14:15:59;;;;;;;;;;;;;;;21.27;29.21;98777.94;5076758;28;1483;-79
2023/10/03 14:18:24;;;;;;;;;;;;;;;21.18;29.36;98786.13;5056653;28;1283;-79
2023/10/03 14:20:50;;;;;;;;;;;;;;;21.30;29.42;98774.31;5079076;28;1360;-79
2023/10/03 14:23:15;;;;;;;;;;;;;;;21.22;29.22;98778.41;5076024;28;1547;-79
2023/10/03 14:25:41;;;;;;;;;;;;;;;21.12;29.49;98782.16;5086735;28;1670;-79
2023/10/03 14:28:06;;;;;;;;;;;;;;;21.16;29.70;98785.75;5064971;28;1591;-79
2023/10/03 14:30:32;;;;;;;;;;;;;;;21.10;29.71;98789.50;5084165;28;2084;-79
2023/10/03 14:32:58;;;;;;;;;;;;;;;21.08;29.66;98781.41;5089472;28;1374;-79
2023/10/03 14:35:25;;;;;;;;;;;;;;;21.11;29.51;98780.56;5061782;28;1101;-79
2023/10/03 14:37:51;;;;;;;;;;;;;;;21.24;29.36;98784.47;5078736;28;968;-78
2023/10/03 14:40:18;;;;;;;;;;;;;;;21.30;29.29;98782.78;5095721;28;1182;-79
2023/10/03 14:42:44;;;;;;;;;;;;;;;21.17;29.44;98787.38;5061918;28;991;-79
2023/10/03 14:45:09;;;;;;;;;;;;;;;21.33;29.01;98781.13;5061451;28;1166;-79
2023/10/03 14:47:35;;;;;;;;;;;;;;;21.02;29.34;98780.28;5094723;28;1499;-79
2023/10/03 14:50:00;;;;;;;;;;;;;;;20.91;29.79;98785.25;5103820;28;1906;-79
2023/10/03 14:52:26;;;;;;;;;;;;;;;21.24;28.95;98783.63;5092587;28;1537;-79
2023/10/03 14:54:51;;;;;;;;;;;;;;;21.39;28.89;98781.44;5089344;28;1623;-79
2023/10/03 14:57:17;;;;;;;;;;;;;;;21.14;29.09;98778.91;5083179;28;1535;-79
2023/10/03 14:59:42;;;;;;;;;;;;;;;21.30;28.85;98777.13;5076315;28;1521;-79
2023/10/03 15:02:08;;;;;;;;;;;;;;;21.43;28.86;98776.56;5100645;28;1513;-79
2023/10/03 15:04:34;;;;;;;;;;;;;;;21.14;29.21;98774.06;5075570;28;1468;-76
2023/10/03 15:07:01;;;;;;;;;;;;;;;21.12;29.20;98770.84;5076557;28;1365;-78
2023/10/03 15:09:28;;;;;;;;;;;;;;;21.09;29.17;98766.06;5085954;28;1910;-78
2023/10/03 15:11:54;;;;;;;;;;;;;;;21.29;28.88;98775.47;5075686;28;1567;-78
2023/10/03 15:14:19;;;;;;;;;;;;;;;20.91;29.51;98776.78;5076374;28;1259;-78
2023/10/03 15:16:45;;;;;;;;;;;;;;;21.04;29.54;98780.66;5076327;28;1544;-78